Time;durP1;ratioP1;P1;durP2;ratioP2;P2;SDS_P1;SDS_P2;PMS_P1;PMS_P2;Temp;Humidity;BMP_temperature;BMP_pressure;BME280_temperature;BME280_humidity;BME280_pressure;Samples;Min_cycle;Max_cycle;Signal;HPM_P1;HPM_P2
2022/08/02 00:08:06;;;;;;;2.10;0.80;;;22.50;60.60;;;;;;20730977;28;20068;-76
2022/08/02 00:18:07;;;;;;;3.33;0.70;;;22.50;60.50;;;;;;20740938;28;20030;-75
2022/08/02 00:28:09;;;;;;;0.68;0.50;;;22.50;60.50;;;;;;20749678;28;20377;-74
2022/08/02 00:38:10;;;;;;;1.48;0.55;;;22.40;60.40;;;;;;20733878;28;20046;-74
2022/08/02 00:48:11;;;;;;;1.23;0.65;;;22.40;60.30;;;;;;20732339;28;20112;-74
2022/08/02 00:58:11;;;;;;;1.30;0.60;;;22.40;60.20;;;;;;20747215;28;20034;-74
2022/08/02 01:08:12;;;;;;;2.70;0.80;;;22.40;60.10;;;;;;21106740;23;20046;-77
2022/08/02 01:18:18;;;;;;;1.52;0.80;;;22.30;60.00;;;;;;20735861;28;20041;-76
2022/08/02 01:28:26;;;;;;;2.53;0.90;;;22.40;60.00;;;;;;20716565;28;20049;-76
2022/08/02 01:38:43;;;;;;;0.68;0.50;;;22.40;59.90;;;;;;20740036;28;20025;-75
2022/08/02 01:48:44;;;;;;;2.50;0.70;;;22.30;59.80;;;;;;20716482;28;20026;-76
2022/08/02 01:58:45;;;;;;;1.10;0.63;;;22.30;60.00;;;;;;20746421;28;20176;-75
2022/08/02 02:08:45;;;;;;;1.73;1.08;;;22.30;59.60;;;;;;20713893;28;20539;-75
2022/08/02 02:18:46;;;;;;;1.90;0.80;;;22.30;59.60;;;;;;20772321;28;20472;-75
2022/08/02 02:28:50;;;;;;;1.85;0.88;;;22.20;59.50;;;;;;20711915;28;20032;-75
2022/08/02 02:38:50;;;;;;;0.45;0.40;;;22.20;59.40;;;;;;20720449;28;20038;-75
2022/08/02 02:48:51;;;;;;;1.35;0.55;;;22.20;59.30;;;;;;20727793;28;20053;-75
2022/08/02 02:58:53;;;;;;;0.75;0.50;;;22.20;59.20;;;;;;20727730;28;20092;-75
2022/08/02 03:08:54;;;;;;;1.00;0.50;;;22.10;59.00;;;;;;20703342;28;20083;-77
2022/08/02 03:18:55;;;;;;;1.17;0.40;;;22.10;59.00;;;;;;20725528;28;20045;-76
2022/08/02 03:28:56;;;;;;;1.95;0.55;;;22.10;58.90;;;;;;20710477;28;20452;-76
2022/08/02 03:38:56;;;;;;;0.82;0.50;;;22.10;58.80;;;;;;20726584;28;20081;-76
2022/08/02 03:48:57;;;;;;;0.38;0.32;;;22.10;58.70;;;;;;20725115;28;20022;-75
2022/08/02 03:59:09;;;;;;;0.90;0.40;;;22.10;58.60;;;;;;20738275;28;20049;-75
2022/08/02 04:09:09;;;;;;;0.60;0.43;;;22.00;58.40;;;;;;20723992;28;20069;-77
2022/08/02 04:19:13;;;;;;;0.45;0.43;;;22.00;58.30;;;;;;20722067;28;20461;-76
2022/08/02 04:29:13;;;;;;;0.82;0.50;;;21.90;58.10;;;;;;20701107;28;20034;-75
2022/08/02 04:39:14;;;;;;;1.27;0.50;;;21.90;58.10;;;;;;20731613;28;20096;-74
2022/08/02 04:49:15;;;;;;;0.98;0.45;;;21.90;58.00;;;;;;20729921;28;20061;-72
2022/08/02 04:59:15;;;;;;;5.00;0.80;;;21.90;58.00;;;;;;20730424;28;20121;-72
2022/08/02 05:09:16;;;;;;;2.28;0.63;;;21.90;57.80;;;;;;20711788;28;20026;-69
2022/08/02 05:19:16;;;;;;;2.35;1.05;;;21.60;56.40;;;;;;20742866;28;20069;-73
2022/08/02 05:29:17;;;;;;;2.13;1.02;;;21.60;56.00;;;;;;20743968;28;20388;-74
2022/08/02 05:39:17;;;;;;;0.85;0.70;;;21.60;55.70;;;;;;20740958;28;20543;-74
2022/08/02 05:49:18;;;;;;;1.35;0.90;;;21.60;56.30;;;;;;20744426;28;20045;-73
2022/08/02 05:59:26;;;;;;;1.83;0.82;;;21.60;55.60;;;;;;20726039;28;20116;-73
2022/08/02 06:09:27;;;;;;;1.30;0.65;;;21.60;55.60;;;;;;20722695;28;20044;-73
2022/08/02 06:19:27;;;;;;;1.63;0.95;;;21.70;55.80;;;;;;20724829;28;20037;-73
2022/08/02 06:29:28;;;;;;;1.33;0.85;;;21.70;56.00;;;;;;20741955;28;20587;-73
2022/08/02 06:39:55;;;;;;;2.72;0.70;;;21.70;56.20;;;;;;20694283;28;20037;-73
2022/08/02 06:49:57;;;;;;;1.20;0.93;;;21.80;56.30;;;;;;20711552;28;20033;-73
2022/08/02 07:00:00;;;;;;;1.38;0.80;;;21.80;56.40;;;;;;20739400;28;20045;-76
2022/08/02 07:10:01;;;;;;;1.50;0.63;;;21.80;56.50;;;;;;20701462;28;20034;-73
2022/08/02 07:20:01;;;;;;;0.98;0.68;;;21.80;56.60;;;;;;20721774;28;20045;-73
2022/08/02 07:30:03;;;;;;;1.15;0.70;;;21.80;56.70;;;;;;20747000;28;20446;-73
2022/08/02 07:40:05;;;;;;;0.95;0.75;;;21.80;56.70;;;;;;20738134;28;20507;-73
2022/08/02 07:50:06;;;;;;;1.90;0.60;;;21.90;56.80;;;;;;20737307;28;20365;-73
2022/08/02 08:00:10;;;;;;;0.93;0.70;;;21.90;56.90;;;;;;20720807;28;20691;-73
2022/08/02 08:10:13;;;;;;;0.95;0.45;;;21.90;56.90;;;;;;20728963;28;20109;-73
2022/08/02 08:20:14;;;;;;;1.08;0.80;;;21.90;57.00;;;;;;20749730;28;20044;-75
2022/08/02 08:30:15;;;;;;;1.67;0.70;;;21.90;57.00;;;;;;20749714;28;20029;-73
2022/08/02 08:40:16;;;;;;;0.50;0.40;;;22.00;57.10;;;;;;20729863;28;20048;-73
2022/08/02 08:50:19;;;;;;;1.27;0.80;;;21.90;57.10;;;;;;20730810;28;20108;-74
2022/08/02 09:00:20;;;;;;;1.13;0.65;;;22.00;57.10;;;;;;20747189;28;20085;-73
2022/08/02 09:10:40;;;;;;;0.73;0.50;;;22.00;57.20;;;;;;20706644;28;20052;-73
2022/08/02 09:20:52;;;;;;;0.95;0.50;;;22.00;57.20;;;;;;20715022;28;20066;-73
2022/08/02 09:30:55;;;;;;;0.90;0.80;;;22.00;57.20;;;;;;20727545;28;20552;-73
2022/08/02 09:40:55;;;;;;;2.63;0.57;;;22.10;57.30;;;;;;20710294;28;20113;-74
2022/08/02 09:50:56;;;;;;;1.23;0.85;;;22.00;57.30;;;;;;20757668;28;20172;-74
2022/08/02 10:01:00;;;;;;;1.08;0.70;;;22.00;57.40;;;;;;20741360;28;20322;-74
2022/08/02 10:11:01;;;;;;;0.70;0.70;;;22.00;57.40;;;;;;20724869;28;20696;-73
2022/08/02 10:21:01;;;;;;;0.60;0.45;;;22.10;57.60;;;;;;20722874;28;20042;-73
2022/08/02 10:31:04;;;;;;;1.88;0.80;;;22.10;57.60;;;;;;20706713;28;20026;-73
2022/08/02 10:41:06;;;;;;;1.25;0.80;;;22.10;57.60;;;;;;20706881;28;20122;-73
2022/08/02 10:51:07;;;;;;;3.00;1.20;;;22.10;57.60;;;;;;20723010;28;20083;-73
2022/08/02 11:01:28;;;;;;;2.58;0.75;;;22.10;57.70;;;;;;20739996;28;20677;-73
2022/08/02 11:11:29;;;;;;;1.42;0.80;;;22.00;57.60;;;;;;20755461;28;20042;-73
2022/08/02 11:21:31;;;;;;;1.73;0.80;;;22.00;57.60;;;;;;20722096;28;20457;-73
2022/08/02 11:31:39;;;;;;;2.45;0.88;;;22.10;57.70;;;;;;20721831;28;20071;-72
2022/08/02 11:41:40;;;;;;;3.13;0.95;;;22.00;57.70;;;;;;20704389;28;20129;-73
2022/08/02 11:51:55;;;;;;;1.60;1.02;;;22.10;57.70;;;;;;20705242;28;20034;-74
2022/08/02 12:01:55;;;;;;;2.20;1.30;;;22.10;57.70;;;;;;20719380;28;20053;-73
2022/08/02 12:11:56;;;;;;;1.45;0.90;;;22.10;57.70;;;;;;20722730;28;20034;-74
2022/08/02 12:22:17;;;;;;;2.83;1.00;;;22.10;57.70;;;;;;20717894;28;20528;-71
2022/08/02 12:32:22;;;;;;;2.10;0.90;;;22.10;57.60;;;;;;20733071;28;20033;-69
2022/08/02 12:42:23;;;;;;;1.13;1.00;;;22.20;57.60;;;;;;20732741;28;20042;-69
2022/08/02 12:52:23;;;;;;;1.50;1.10;;;22.20;57.50;;;;;;20731828;28;20443;-74
2022/08/02 13:02:24;;;;;;;0.80;0.80;;;22.20;57.50;;;;;;20714766;28;20038;-74
2022/08/02 13:12:25;;;;;;;1.63;1.20;;;22.20;57.50;;;;;;20732271;28;20319;-75
2022/08/02 13:22:25;;;;;;;6.90;1.20;;;22.30;57.50;;;;;;20732028;28;20048;-73
2022/08/02 13:32:27;;;;;;;0.95;0.80;;;22.30;57.40;;;;;;20715317;28;20034;-70
2022/08/02 13:42:28;;;;;;;1.92;1.08;;;22.40;57.30;;;;;;20711739;28;20099;-72
2022/08/02 13:52:28;;;;;;;1.90;0.97;;;22.40;57.20;;;;;;20714777;28;20536;-72
2022/08/02 14:02:29;;;;;;;3.10;1.10;;;22.50;57.00;;;;;;20726190;28;20296;-71
2022/08/02 14:12:30;;;;;;;1.05;0.90;;;22.50;56.90;;;;;;20730597;28;20113;-68
2022/08/02 14:22:30;;;;;;;1.55;0.75;;;22.60;56.80;;;;;;20722898;28;20049;-68
2022/08/02 14:32:31;;;;;;;1.60;1.02;;;22.70;56.80;;;;;;20707005;28;20037;-68
2022/08/02 14:42:31;;;;;;;2.53;1.00;;;22.70;56.90;;;;;;20722111;28;20541;-69
2022/08/02 14:52:32;;;;;;;2.33;0.90;;;22.80;57.10;;;;;;20721164;28;20030;-74
2022/08/02 15:02:33;;;;;;;1.77;0.90;;;22.80;57.40;;;;;;20722836;28;20080;-71
2022/08/02 15:12:33;;;;;;;1.65;0.85;;;22.80;57.50;;;;;;20709957;28;20058;-70
2022/08/02 15:22:34;;;;;;;1.93;0.90;;;22.80;57.70;;;;;;20704611;28;20744;-71
2022/08/02 15:32:34;;;;;;;1.73;1.00;;;22.80;57.80;;;;;;20704818;28;20284;-74
2022/08/02 15:42:35;;;;;;;1.85;0.98;;;22.90;57.80;;;;;;20692541;28;20042;-79
2022/08/02 15:52:36;;;;;;;1.48;0.73;;;22.90;57.60;;;;;;20736411;28;20033;-77
2022/08/02 16:02:36;;;;;;;1.97;1.00;;;23.10;57.60;;;;;;20734228;28;20081;-75
2022/08/02 16:12:37;;;;;;;2.42;0.90;;;23.20;57.40;;;;;;20666977;28;20289;-75
2022/08/02 16:22:37;;;;;;;3.63;1.17;;;23.30;57.30;;;;;;20675694;28;20046;-74
2022/08/02 16:32:38;;;;;;;2.03;1.40;;;23.40;57.30;;;;;;20764775;28;20124;-73
2022/08/02 16:42:38;;;;;;;0.80;0.67;;;23.40;57.20;;;;;;20755366;28;20037;-74
2022/08/02 16:52:39;;;;;;;1.75;0.90;;;23.40;57.10;;;;;;20739304;28;20371;-75
2022/08/02 17:02:40;;;;;;;1.10;0.93;;;23.50;57.10;;;;;;20736168;28;20041;-74
2022/08/02 17:12:40;;;;;;;0.88;0.68;;;23.50;57.10;;;;;;20737373;28;20045;-74
2022/08/02 17:22:41;;;;;;;1.27;0.90;;;23.50;57.10;;;;;;20735287;28;20042;-74
2022/08/02 17:32:42;;;;;;;1.48;0.77;;;23.50;57.20;;;;;;20752202;28;20029;-74
2022/08/02 17:42:42;;;;;;;1.92;1.00;;;23.50;58.00;;;;;;20719110;28;20096;-77
2022/08/02 17:52:43;;;;;;;2.42;0.93;;;23.40;57.40;;;;;;20735428;28;20108;-75
2022/08/02 18:02:43;;;;;;;0.60;0.60;;;23.50;57.60;;;;;;20717312;28;20050;-74
2022/08/02 18:12:45;;;;;;;2.47;0.80;;;23.40;57.70;;;;;;20731602;28;20054;-73
2022/08/02 18:22:46;;;;;;;1.45;0.50;;;23.40;57.80;;;;;;20732359;28;20098;-74
2022/08/02 18:32:47;;;;;;;0.82;0.73;;;23.30;57.80;;;;;;20714674;28;20030;-74
2022/08/02 18:42:47;;;;;;;0.80;0.68;;;23.30;57.90;;;;;;20731220;28;20710;-74
2022/08/02 18:52:48;;;;;;;1.25;0.60;;;23.30;58.10;;;;;;20712708;28;20454;-77
2022/08/02 19:02:48;;;;;;;1.00;0.60;;;23.20;58.20;;;;;;20708263;28;20691;-76
2022/08/02 19:12:49;;;;;;;0.93;0.67;;;23.20;58.30;;;;;;20711894;28;20468;-72
2022/08/02 19:22:50;;;;;;;0.50;0.40;;;23.20;58.40;;;;;;20725009;28;20794;-72
2022/08/02 19:32:50;;;;;;;1.55;0.85;;;23.20;58.50;;;;;;20723636;28;20041;-72
2022/08/02 19:42:51;;;;;;;2.60;0.73;;;23.10;58.50;;;;;;20723593;28;20376;-75
2022/08/02 19:52:58;;;;;;;3.00;0.75;;;23.10;58.60;;;;;;20727764;28;20069;-79
2022/08/02 20:02:59;;;;;;;3.97;0.90;;;23.10;58.70;;;;;;20719210;28;20455;-73
2022/08/02 20:12:59;;;;;;;1.65;0.80;;;23.10;58.70;;;;;;20739182;28;20117;-74
2022/08/02 20:23:20;;;;;;;2.20;0.90;;;23.10;58.70;;;;;;20758276;28;20029;-75
2022/08/02 20:33:22;;;;;;;2.35;0.55;;;23.10;58.70;;;;;;20745947;28;20037;-75
2022/08/02 20:43:23;;;;;;;1.35;0.70;;;23.10;58.70;;;;;;20714918;28;20400;-75
2022/08/02 20:53:23;;;;;;;0.80;0.65;;;23.00;58.60;;;;;;20698516;28;20044;-76
2022/08/02 21:03:24;;;;;;;1.23;0.70;;;23.10;58.70;;;;;;20713976;28;20053;-76
2022/08/02 21:13:24;;;;;;;0.80;0.68;;;23.10;58.70;;;;;;20713911;28;20423;-76
2022/08/02 21:23:26;;;;;;;1.50;0.90;;;23.10;58.70;;;;;;20729273;28;20029;-75
2022/08/02 21:33:27;;;;;;;0.75;0.55;;;23.00;58.60;;;;;;20728511;28;20288;-75
2022/08/02 21:43:28;;;;;;;1.23;0.95;;;23.10;58.70;;;;;;20744155;28;20036;-75
2022/08/02 21:53:28;;;;;;;2.10;0.95;;;23.10;58.70;;;;;;20726927;28;20395;-74
2022/08/02 22:03:29;;;;;;;1.08;0.90;;;23.00;58.70;;;;;;20724821;28;20361;-74
2022/08/02 22:13:30;;;;;;;1.20;0.85;;;23.00;58.70;;;;;;20692683;28;20177;-75
2022/08/02 22:23:30;;;;;;;0.98;0.70;;;23.00;58.70;;;;;;20724952;28;20046;-75
2022/08/02 22:43:50;;;;;;;1.00;0.73;;;23.10;58.80;;;;;;20713195;28;20484;-74
2022/08/02 22:53:51;;;;;;;0.75;0.60;;;23.10;58.80;;;;;;20723670;28;20040;-76
2022/08/02 23:03:51;;;;;;;0.70;0.60;;;23.00;58.80;;;;;;20739905;28;20041;-74
2022/08/02 23:13:52;;;;;;;1.45;0.80;;;23.00;58.80;;;;;;20706308;28;20125;-75
2022/08/02 23:23:52;;;;;;;0.60;0.60;;;23.00;58.90;;;;;;20723374;28;20129;-74
2022/08/02 23:33:53;;;;;;;1.05;0.90;;;23.00;58.90;;;;;;20721529;28;20038;-76
2022/08/02 23:43:53;;;;;;;0.60;0.60;;;23.00;58.90;;;;;;20706187;28;20034;-75
2022/08/02 23:53:54;;;;;;;2.10;1.00;;;23.00;58.90;;;;;;20688388;28;20061;-74
